createdAt,value
2023-03-02T00:01:33.890Z,56.15
2023-03-02T00:04:02.488Z,55.84
2023-03-02T00:06:31.481Z,55.71
2023-03-02T00:09:02.729Z,56.15
2023-03-02T00:11:31.638Z,55.93
2023-03-02T00:13:58.244Z,55.92
2023-03-02T00:16:25.396Z,56.42
2023-03-02T00:18:51.863Z,56.26
2023-03-02T00:21:18.405Z,56.68
2023-03-02T00:23:45.000Z,56.57
2023-03-02T00:26:11.589Z,56.96
2023-03-02T00:28:38.086Z,56.92
2023-03-02T00:31:05.553Z,56.79
2023-03-02T00:33:33.347Z,56.84
2023-03-02T00:35:59.920Z,57.25
2023-03-02T00:38:27.653Z,57.26
2023-03-02T00:40:55.455Z,57.15
2023-03-02T00:43:27.392Z,56.93
2023-03-02T00:45:55.252Z,57.22
2023-03-02T00:48:21.986Z,57.13
2023-03-02T00:50:48.495Z,56.99
2023-03-02T00:53:15.010Z,57.04
2023-03-02T00:55:41.412Z,57.32
2023-03-02T00:58:07.941Z,57.75
2023-03-02T01:00:35.586Z,57.97
2023-03-02T01:03:02.210Z,57.84
2023-03-02T01:05:28.881Z,57.94
2023-03-02T01:07:55.368Z,58.29
2023-03-02T01:10:21.831Z,58.29
2023-03-02T01:12:48.316Z,58.40
2023-03-02T01:15:14.935Z,58.60
2023-03-02T01:17:42.869Z,58.57
2023-03-02T01:20:10.895Z,58.60
2023-03-02T01:22:37.493Z,58.56
2023-03-02T01:25:04.593Z,59.04
2023-03-02T01:27:31.101Z,59.08
2023-03-02T01:29:57.512Z,58.89
2023-03-02T01:32:24.098Z,59.00
2023-03-02T01:34:50.741Z,58.95
2023-03-02T01:37:17.229Z,58.91
2023-03-02T01:39:43.687Z,58.75
2023-03-02T01:42:10.122Z,58.84
2023-03-02T01:44:48.957Z,59.83
2023-03-02T01:47:23.442Z,59.63
2023-03-02T01:49:58.882Z,59.53
2023-03-02T01:52:26.838Z,59.11
2023-03-02T01:54:58.497Z,59.07
2023-03-02T01:57:32.899Z,59.34
2023-03-02T02:00:08.626Z,59.78
2023-03-02T02:02:36.331Z,58.47
2023-03-02T02:05:03.804Z,58.95
2023-03-02T02:07:30.546Z,58.38
2023-03-02T02:09:57.360Z,58.43
2023-03-02T02:12:24.166Z,58.96
2023-03-02T02:14:51.285Z,58.75
2023-03-02T02:17:18.993Z,58.98
2023-03-02T02:19:51.357Z,58.88
2023-03-02T02:22:44.927Z,59.66
2023-03-02T02:25:33.801Z,59.89
2023-03-02T02:28:02.539Z,58.93
2023-03-02T02:30:29.640Z,58.84
2023-03-02T02:32:58.453Z,58.62
2023-03-02T02:35:28.372Z,59.22
2023-03-02T02:38:02.324Z,59.22
2023-03-02T02:40:58.606Z,59.28
2023-03-02T02:43:27.684Z,58.87
2023-03-02T02:45:57.849Z,59.26
2023-03-02T02:48:27.126Z,59.06
2023-03-02T02:53:33.077Z,59.39
2023-03-02T02:56:00.694Z,58.95
2023-03-02T02:58:40.225Z,59.71
2023-03-02T03:01:07.916Z,59.22
2023-03-02T03:03:37.597Z,59.86
2023-03-02T03:06:08.901Z,59.53
2023-03-02T03:08:41.334Z,59.63
2023-03-02T03:11:09.675Z,59.19
2023-03-02T03:13:37.686Z,59.21
2023-03-02T03:16:07.758Z,59.56
2023-03-02T03:18:34.220Z,59.15
2023-03-02T03:21:00.787Z,59.45
2023-03-02T03:23:27.316Z,59.85
2023-03-02T03:25:53.812Z,59.73
2023-03-02T03:28:20.316Z,59.43
2023-03-02T03:30:47.062Z,59.92
2023-03-02T03:33:13.627Z,60.15
2023-03-02T03:35:40.230Z,60.03
2023-03-02T03:38:07.773Z,59.67
2023-03-02T03:40:34.575Z,59.71
2023-03-02T03:43:02.357Z,59.80
2023-03-02T03:45:30.513Z,59.52
2023-03-02T03:47:57.606Z,60.02
2023-03-02T03:50:24.752Z,59.84
2023-03-02T03:52:51.492Z,59.79
2023-03-02T03:55:18.225Z,60.04
2023-03-02T03:57:45.128Z,60.32
2023-03-02T04:00:17.726Z,60.50
2023-03-02T04:02:44.269Z,60.04
2023-03-02T04:05:11.348Z,60.42
2023-03-02T04:07:39.057Z,60.17
2023-03-02T04:10:07.345Z,60.32
2023-03-02T04:12:36.284Z,60.56
2023-03-02T04:15:04.068Z,60.46
2023-03-02T04:17:30.631Z,60.52
2023-03-02T04:19:57.305Z,60.63
2023-03-02T04:22:23.752Z,60.56
2023-03-02T04:24:50.470Z,60.69
2023-03-02T04:27:17.318Z,61.14
2023-03-02T04:29:45.420Z,60.98
2023-03-02T04:32:14.787Z,61.15
2023-03-02T04:34:41.654Z,60.78
2023-03-02T04:37:08.135Z,61.15
2023-03-02T04:39:34.592Z,61.05
2023-03-02T04:42:01.006Z,61.07
2023-03-02T04:44:27.667Z,60.97
2023-03-02T04:46:54.296Z,60.98
2023-03-02T04:49:20.893Z,60.86
2023-03-02T04:51:49.514Z,60.89
2023-03-02T04:54:21.787Z,61.47
2023-03-02T04:56:48.718Z,61.19
2023-03-02T04:59:16.712Z,61.47
2023-03-02T05:01:44.540Z,61.26
2023-03-02T05:04:11.572Z,61.01
2023-03-02T05:06:38.439Z,61.45
2023-03-02T05:09:05.606Z,61.67
2023-03-02T05:11:32.521Z,61.56
2023-03-02T05:14:02.168Z,61.25
2023-03-02T05:16:32.886Z,61.56
2023-03-02T05:19:01.573Z,61.33
2023-03-02T05:21:28.295Z,61.79
2023-03-02T05:23:54.913Z,61.45
2023-03-02T05:26:21.387Z,61.46
2023-03-02T05:28:48.016Z,61.26
2023-03-02T05:31:29.976Z,61.87
2023-03-02T05:33:57.065Z,61.69
2023-03-02T05:36:23.750Z,61.16
2023-03-02T05:38:50.306Z,61.68
2023-03-02T05:41:17.151Z,61.23
2023-03-02T05:43:44.078Z,61.59
2023-03-02T05:46:10.702Z,61.33
2023-03-02T05:48:37.166Z,61.37
2023-03-02T05:51:04.250Z,61.97
2023-03-02T05:53:30.755Z,61.63
2023-03-02T05:55:57.307Z,62.08
2023-03-02T05:58:23.830Z,61.60
2023-03-02T06:00:50.334Z,61.74
2023-03-02T06:03:17.079Z,61.65
2023-03-02T06:05:43.813Z,61.35
2023-03-02T06:08:10.841Z,61.67
2023-03-02T06:10:38.200Z,61.67
2023-03-02T06:13:04.686Z,61.97
2023-03-02T06:15:31.189Z,62.06
2023-03-02T06:17:57.779Z,61.80
2023-03-02T06:20:24.565Z,62.45
2023-03-02T06:22:51.408Z,62.00
2023-03-02T06:25:23.469Z,62.88
2023-03-02T06:27:53.976Z,62.44
2023-03-02T06:30:25.388Z,62.40
2023-03-02T06:32:52.149Z,61.97
2023-03-02T06:35:19.062Z,61.99
2023-03-02T06:37:45.730Z,61.92
2023-03-02T06:40:13.933Z,62.17
2023-03-02T06:42:42.029Z,62.89
2023-03-02T06:45:10.295Z,62.92
2023-03-02T06:47:36.827Z,62.57
2023-03-02T06:50:03.917Z,62.61
2023-03-02T06:52:30.558Z,62.41
2023-03-02T06:54:57.070Z,62.96
2023-03-02T06:57:23.670Z,62.78
2023-03-02T06:59:50.145Z,63.17
2023-03-02T07:02:16.606Z,62.84
2023-03-02T07:04:43.116Z,62.50
2023-03-02T07:07:09.675Z,62.82
2023-03-02T07:09:36.167Z,62.96
2023-03-02T07:12:02.736Z,62.71
2023-03-02T07:14:29.376Z,62.59
2023-03-02T07:16:57.494Z,63.19
2023-03-02T07:19:24.332Z,63.11
2023-03-02T07:21:50.852Z,63.21
2023-03-02T07:24:17.417Z,62.88
2023-03-02T07:26:43.910Z,62.81
2023-03-02T07:29:10.356Z,62.99
2023-03-02T07:31:36.824Z,63.11
2023-03-02T07:34:03.392Z,63.17
2023-03-02T07:36:30.072Z,63.36
2023-03-02T07:38:56.544Z,63.41
2023-03-02T07:41:23.138Z,63.24
2023-03-02T07:43:49.601Z,62.96
2023-03-02T07:46:16.474Z,63.21
2023-03-02T07:48:42.965Z,63.16
2023-03-02T07:51:09.417Z,63.66
2023-03-02T07:53:35.987Z,63.84
2023-03-02T07:56:07.136Z,64.16
2023-03-02T07:58:35.270Z,63.45
2023-03-02T08:01:01.947Z,63.13
2023-03-02T08:03:28.560Z,63.64
2023-03-02T08:05:55.130Z,63.22
2023-03-02T08:08:21.743Z,63.29
2023-03-02T08:10:48.240Z,63.23
2023-03-02T08:13:14.756Z,63.00
2023-03-02T08:15:41.224Z,63.53
2023-03-02T08:18:07.763Z,63.21
2023-03-02T08:20:34.289Z,63.51
2023-03-02T08:23:00.792Z,63.73
2023-03-02T08:25:27.362Z,63.89
2023-03-02T08:27:53.888Z,63.73
2023-03-02T08:30:20.544Z,63.50
2023-03-02T08:32:47.118Z,63.81
2023-03-02T08:35:13.580Z,63.79
2023-03-02T08:37:40.043Z,63.52
2023-03-02T08:40:07.276Z,63.25
2023-03-02T08:42:33.843Z,63.47
2023-03-02T08:45:00.363Z,63.54
2023-03-02T08:47:26.914Z,63.47
2023-03-02T08:52:34.777Z,63.42
2023-03-02T08:55:03.644Z,63.49
2023-03-02T08:57:30.466Z,63.77
2023-03-02T08:59:57.008Z,63.52
2023-03-02T09:02:23.577Z,63.46
2023-03-02T09:04:50.131Z,63.70
2023-03-02T09:07:17.423Z,63.81
2023-03-02T09:09:44.116Z,63.84
2023-03-02T09:12:10.763Z,63.30
2023-03-02T09:14:37.296Z,63.70
2023-03-02T09:17:04.130Z,63.46
2023-03-02T09:19:30.676Z,63.44
2023-03-02T09:21:57.131Z,63.31
2023-03-02T09:24:23.686Z,63.31
2023-03-02T09:26:50.528Z,62.89
2023-03-02T09:29:16.976Z,63.08
2023-03-02T09:31:43.451Z,63.05
2023-03-02T09:34:09.917Z,63.54
2023-03-02T09:36:36.552Z,63.34
2023-03-02T09:39:08.526Z,63.30
2023-03-02T09:42:07.854Z,62.95
2023-03-02T09:45:00.006Z,62.90
2023-03-02T09:47:52.809Z,62.83
2023-03-02T09:50:35.226Z,62.99
2023-03-02T09:53:39.377Z,63.06
2023-03-02T09:56:14.594Z,63.03
2023-03-02T09:58:42.926Z,63.05
2023-03-02T10:01:21.757Z,62.63
2023-03-02T10:03:56.398Z,62.54
2023-03-02T10:06:26.878Z,62.63
2023-03-02T10:08:53.408Z,62.67
2023-03-02T10:11:29.590Z,62.13
2023-03-02T10:14:04.555Z,61.87
2023-03-02T10:16:37.935Z,61.76
2023-03-02T10:19:26.022Z,61.85
2023-03-02T10:22:10.573Z,61.94
2023-03-02T10:24:48.240Z,62.21
2023-03-02T10:27:26.084Z,62.54
2023-03-02T10:30:10.912Z,63.00
2023-03-02T10:32:43.800Z,62.53
2023-03-02T10:35:23.146Z,62.88
2023-03-02T10:37:59.962Z,63.25
2023-03-02T10:40:45.316Z,63.02
2023-03-02T10:43:31.689Z,63.73
2023-03-02T10:46:03.194Z,64.04
2023-03-02T10:48:29.914Z,63.82
2023-03-02T10:50:58.502Z,63.99
2023-03-02T10:53:25.179Z,64.83
2023-03-02T10:55:53.541Z,64.89
2023-03-02T10:58:22.887Z,64.22
2023-03-02T11:01:04.477Z,62.43
2023-03-02T11:03:32.588Z,62.79
2023-03-02T11:06:18.172Z,60.86
2023-03-02T11:08:44.740Z,61.17
2023-03-02T11:11:22.440Z,59.89
2023-03-02T11:13:49.003Z,61.44
2023-03-02T11:16:18.277Z,60.64
2023-03-02T11:18:51.867Z,60.39
2023-03-02T11:21:28.712Z,60.11
2023-03-02T11:24:02.191Z,59.79
2023-03-02T11:26:44.381Z,59.19
2023-03-02T11:29:10.887Z,60.67
2023-03-02T11:31:45.866Z,59.60
2023-03-02T11:34:34.891Z,60.57
2023-03-02T11:37:15.524Z,60.82
2023-03-02T11:39:54.948Z,61.83
2023-03-02T11:42:27.955Z,62.38
2023-03-02T11:44:55.474Z,64.95
2023-03-02T11:47:23.086Z,65.67
2023-03-02T11:49:59.022Z,62.54
2023-03-02T11:52:30.123Z,64.88
2023-03-02T11:55:03.105Z,65.47
2023-03-02T11:57:32.736Z,60.99
2023-03-02T12:00:00.568Z,64.64
2023-03-02T12:02:27.528Z,62.26
2023-03-02T12:05:23.466Z,55.15
2023-03-02T12:08:01.762Z,54.34
2023-03-02T12:10:36.441Z,54.73
2023-03-02T12:13:28.517Z,51.85
2023-03-02T12:15:58.646Z,54.58
2023-03-02T12:18:25.302Z,53.25
2023-03-02T12:21:13.789Z,47.01
2023-03-02T12:23:49.234Z,47.20
2023-03-02T12:26:21.491Z,47.22
2023-03-02T12:29:05.567Z,46.26
2023-03-02T12:31:42.993Z,44.44
2023-03-02T12:34:24.348Z,46.03
2023-03-02T12:36:54.592Z,46.85
2023-03-02T12:39:42.915Z,44.85
2023-03-02T12:42:30.574Z,43.87
2023-03-02T12:45:11.853Z,43.54
2023-03-02T12:47:44.506Z,43.61
2023-03-02T12:50:27.362Z,42.29
2023-03-02T12:53:02.849Z,42.02
2023-03-02T12:55:30.309Z,44.00
2023-03-02T12:58:01.088Z,42.01
2023-03-02T13:00:32.907Z,40.35
2023-03-02T13:03:02.119Z,42.56
2023-03-02T13:05:31.473Z,41.37
2023-03-02T13:08:01.842Z,39.72
2023-03-02T13:10:41.142Z,39.45
2023-03-02T13:13:39.311Z,40.37
2023-03-02T13:16:18.193Z,41.46
2023-03-02T13:18:45.806Z,41.86
2023-03-02T13:21:14.505Z,40.21
2023-03-02T13:23:50.276Z,38.02
2023-03-02T13:26:37.104Z,39.01
2023-03-02T13:29:07.258Z,38.91
2023-03-02T13:31:34.985Z,39.00
2023-03-02T13:34:01.772Z,39.04
2023-03-02T13:36:41.497Z,37.69
2023-03-02T13:39:19.776Z,37.40
2023-03-02T13:41:55.691Z,37.85
2023-03-02T13:44:28.072Z,38.77
2023-03-02T13:46:55.554Z,40.10
2023-03-02T13:49:32.877Z,39.20
2023-03-02T13:52:08.162Z,39.47
2023-03-02T13:54:37.046Z,40.86
2023-03-02T13:57:05.652Z,41.52
2023-03-02T13:59:36.431Z,41.48
2023-03-02T14:02:03.379Z,42.95
2023-03-02T14:04:29.923Z,43.17
2023-03-02T14:06:56.609Z,43.65
2023-03-02T14:09:23.292Z,43.87
2023-03-02T14:11:53.375Z,43.39
2023-03-02T14:14:23.383Z,43.17
2023-03-02T14:16:50.449Z,43.53
2023-03-02T14:19:18.370Z,43.65
2023-03-02T14:21:46.054Z,43.90
2023-03-02T14:24:12.792Z,44.28
2023-03-02T14:26:44.455Z,42.34
2023-03-02T14:29:19.765Z,42.22
2023-03-02T14:31:46.286Z,43.06
2023-03-02T14:34:14.184Z,42.30
2023-03-02T14:36:43.836Z,41.78
2023-03-02T14:39:35.661Z,41.08
2023-03-02T14:42:02.601Z,42.54
2023-03-02T14:44:29.188Z,42.08
2023-03-02T14:46:57.575Z,41.29
2023-03-02T14:49:25.137Z,40.68
2023-03-02T14:52:02.581Z,38.76
2023-03-02T14:54:38.297Z,38.08
2023-03-02T14:57:06.245Z,39.91
2023-03-02T14:59:32.668Z,39.67
2023-03-02T15:02:06.093Z,38.91
2023-03-02T15:04:36.929Z,39.22
2023-03-02T15:07:03.502Z,38.64
2023-03-02T15:09:29.895Z,38.43
2023-03-02T15:11:56.348Z,37.57
2023-03-02T15:14:22.791Z,37.60
2023-03-02T15:16:49.265Z,37.52
2023-03-02T15:19:15.692Z,37.47
2023-03-02T15:21:44.791Z,37.06
2023-03-02T15:24:11.842Z,36.70
2023-03-02T15:26:41.132Z,37.05
2023-03-02T15:29:08.394Z,36.66
2023-03-02T15:31:35.217Z,36.49
2023-03-02T15:34:01.939Z,36.31
2023-03-02T15:36:28.358Z,36.22
2023-03-02T15:38:55.112Z,36.25
2023-03-02T15:41:21.715Z,36.62
2023-03-02T15:43:52.460Z,36.46
2023-03-02T15:46:20.434Z,37.36
2023-03-02T15:48:46.913Z,38.01
2023-03-02T15:51:13.684Z,38.37
2023-03-02T15:53:40.211Z,38.70
2023-03-02T15:56:07.959Z,39.36
2023-03-02T15:58:35.704Z,39.67
2023-03-02T16:01:12.191Z,40.27
2023-03-02T16:03:38.642Z,41.21
2023-03-02T16:06:05.503Z,41.83
2023-03-02T16:08:31.834Z,42.21
2023-03-02T16:11:05.343Z,42.79
2023-03-02T16:13:32.210Z,43.10
2023-03-02T16:16:05.852Z,43.82
2023-03-02T16:18:32.924Z,44.15
2023-03-02T16:20:59.355Z,44.68
2023-03-02T16:23:25.767Z,44.94
2023-03-02T16:25:52.264Z,45.51
2023-03-02T16:28:19.528Z,45.83
2023-03-02T16:30:46.279Z,46.13
2023-03-02T16:33:16.980Z,46.80
2023-03-02T16:35:43.567Z,46.86
2023-03-02T16:38:10.363Z,47.32
2023-03-02T16:40:39.933Z,47.64
2023-03-02T16:43:08.802Z,48.01
2023-03-02T16:45:35.895Z,48.18
2023-03-02T16:48:03.513Z,48.51
2023-03-02T16:50:29.962Z,48.70
2023-03-02T16:52:58.111Z,49.12
2023-03-02T16:55:24.890Z,49.26
2023-03-02T16:57:51.255Z,49.40
2023-03-02T17:00:23.369Z,49.68
2023-03-02T17:03:00.923Z,49.68
2023-03-02T17:05:27.311Z,49.85
2023-03-02T17:07:54.938Z,50.20
2023-03-02T17:10:21.848Z,50.32
2023-03-02T17:12:48.241Z,50.72
2023-03-02T17:15:14.957Z,51.07
2023-03-02T17:17:41.404Z,51.19
2023-03-02T17:20:11.314Z,51.33
2023-03-02T17:22:38.150Z,51.03
2023-03-02T17:25:05.556Z,51.95
2023-03-02T17:27:32.022Z,51.94
2023-03-02T17:29:58.496Z,52.08
2023-03-02T17:32:25.003Z,52.22
2023-03-02T17:34:51.452Z,52.43
2023-03-02T17:37:17.879Z,52.14
2023-03-02T17:39:44.254Z,52.52
2023-03-02T17:42:10.739Z,52.86
2023-03-02T17:44:40.398Z,53.30
2023-03-02T17:47:08.235Z,52.86
2023-03-02T17:49:39.078Z,53.07
2023-03-02T17:52:05.864Z,53.20
2023-03-02T17:54:32.476Z,53.36
2023-03-02T17:56:58.892Z,53.40
2023-03-02T17:59:25.284Z,53.43
2023-03-02T18:01:51.657Z,53.65
2023-03-02T18:04:18.191Z,53.87
2023-03-02T18:06:44.682Z,54.15
2023-03-02T18:09:11.091Z,54.00
2023-03-02T18:11:37.548Z,54.37
2023-03-02T18:14:03.961Z,54.42
2023-03-02T18:16:30.769Z,54.37
2023-03-02T18:18:57.681Z,54.44
2023-03-02T18:21:24.256Z,54.47
2023-03-02T18:23:51.085Z,54.85
2023-03-02T18:26:17.628Z,54.48
2023-03-02T18:28:44.107Z,54.58
2023-03-02T18:31:13.441Z,54.93
2023-03-02T18:33:39.880Z,54.70
2023-03-02T18:36:06.601Z,54.89
2023-03-02T18:38:34.060Z,55.28
2023-03-02T18:41:03.084Z,55.16
2023-03-02T18:43:32.559Z,55.35
2023-03-02T18:45:58.970Z,55.62
2023-03-02T18:48:25.361Z,55.99
2023-03-02T18:50:51.793Z,56.14
2023-03-02T18:53:18.184Z,56.34
2023-03-02T18:55:44.521Z,56.38
2023-03-02T18:58:18.433Z,56.98
2023-03-02T19:00:46.128Z,56.40
2023-03-02T19:03:15.093Z,56.36
2023-03-02T19:05:42.260Z,56.79
2023-03-02T19:08:09.085Z,56.47
2023-03-02T19:10:36.581Z,56.40
2023-03-02T19:13:03.514Z,56.72
2023-03-02T19:15:32.891Z,56.32
2023-03-02T19:17:59.264Z,56.35
2023-03-02T19:20:27.155Z,56.33
2023-03-02T19:22:54.881Z,56.54
2023-03-02T19:25:21.833Z,56.75
2023-03-02T19:27:48.713Z,56.76
2023-03-02T19:30:19.956Z,57.29
2023-03-02T19:32:46.886Z,57.03
2023-03-02T19:35:17.748Z,57.60
2023-03-02T19:37:44.804Z,57.05
2023-03-02T19:40:13.343Z,57.46
2023-03-02T19:42:45.071Z,57.28
2023-03-02T19:45:16.228Z,57.64
2023-03-02T19:47:43.011Z,57.17
2023-03-02T19:50:10.100Z,57.17
2023-03-02T19:52:37.381Z,57.26
2023-03-02T19:55:05.478Z,57.31
2023-03-02T19:57:32.013Z,57.49
2023-03-02T19:59:58.365Z,57.56
2023-03-02T20:02:24.833Z,57.60
2023-03-02T20:04:52.175Z,57.37
2023-03-02T20:07:19.363Z,57.73
2023-03-02T20:09:46.222Z,57.93
2023-03-02T20:12:12.921Z,57.32
2023-03-02T20:14:40.554Z,57.56
2023-03-02T20:17:06.940Z,57.32
2023-03-02T20:19:33.289Z,57.63
2023-03-02T20:21:59.607Z,57.65
2023-03-02T20:24:26.036Z,57.58
2023-03-02T20:26:52.519Z,57.65
2023-03-02T20:29:19.492Z,57.87
2023-03-02T20:31:46.175Z,58.16
2023-03-02T20:34:15.812Z,58.39
2023-03-02T20:36:43.460Z,58.34
2023-03-02T20:39:16.380Z,58.44
2023-03-02T20:41:43.186Z,58.52
2023-03-02T20:44:12.259Z,58.04
2023-03-02T20:46:44.954Z,58.48
2023-03-02T20:49:15.269Z,58.31
2023-03-02T20:54:51.634Z,58.54
2023-03-02T20:57:20.261Z,58.84
2023-03-02T20:59:47.835Z,58.67
2023-03-02T21:02:15.570Z,58.65
2023-03-02T21:04:42.759Z,58.48
2023-03-02T21:07:10.249Z,58.83
2023-03-02T21:09:37.574Z,58.81
2023-03-02T21:12:04.711Z,58.88
2023-03-02T21:14:33.198Z,59.20
2023-03-02T21:17:01.432Z,59.15
2023-03-02T21:19:30.949Z,59.28
2023-03-02T21:21:58.075Z,59.53
2023-03-02T21:24:25.033Z,59.41
2023-03-02T21:26:53.850Z,59.89
2023-03-02T21:29:23.237Z,59.67
2023-03-02T21:31:50.045Z,59.38
2023-03-02T21:34:18.797Z,59.41
2023-03-02T21:36:46.182Z,59.39
2023-03-02T21:39:13.628Z,59.41
2023-03-02T21:41:40.352Z,59.63
2023-03-02T21:44:07.355Z,59.63
2023-03-02T21:46:36.209Z,59.67
2023-03-02T21:49:03.537Z,59.83
2023-03-02T21:51:30.244Z,59.75
2023-03-02T21:53:56.732Z,59.41
2023-03-02T21:56:24.908Z,59.52
2023-03-02T21:58:53.295Z,60.07
2023-03-02T22:01:20.834Z,59.44
2023-03-02T22:03:47.384Z,59.83
2023-03-02T22:06:22.296Z,60.37
2023-03-02T22:08:49.252Z,60.16
2023-03-02T22:11:37.320Z,60.97
2023-03-02T22:14:13.043Z,60.87
2023-03-02T22:16:44.233Z,60.59
2023-03-02T22:19:23.354Z,61.09
2023-03-02T22:21:50.424Z,60.57
2023-03-02T22:24:26.859Z,61.15
2023-03-02T22:26:59.239Z,61.09
2023-03-02T22:29:25.697Z,60.46
2023-03-02T22:31:54.797Z,60.70
2023-03-02T22:34:27.359Z,61.16
2023-03-02T22:36:59.948Z,61.04
2023-03-02T22:39:32.839Z,61.16
2023-03-02T22:42:07.290Z,60.58
2023-03-02T22:44:34.301Z,60.04
2023-03-02T22:47:01.711Z,60.40
2023-03-02T22:49:29.910Z,60.68
2023-03-02T22:52:01.624Z,60.79
2023-03-02T22:54:37.223Z,61.16
2023-03-02T22:57:03.986Z,60.79
2023-03-02T22:59:37.180Z,61.37
2023-03-02T23:02:15.263Z,61.52
2023-03-02T23:04:42.044Z,60.57
2023-03-02T23:07:20.168Z,61.08
2023-03-02T23:09:47.147Z,60.61
2023-03-02T23:12:23.042Z,61.19
2023-03-02T23:14:55.177Z,61.13
2023-03-02T23:17:30.606Z,61.40
2023-03-02T23:19:57.668Z,61.11
2023-03-02T23:22:28.376Z,60.99
2023-03-02T23:24:55.879Z,61.03
2023-03-02T23:27:24.312Z,60.84
2023-03-02T23:29:52.244Z,61.12
2023-03-02T23:32:19.601Z,61.15
2023-03-02T23:34:46.530Z,61.46
2023-03-02T23:37:13.094Z,61.11
2023-03-02T23:39:39.626Z,61.35
2023-03-02T23:42:06.244Z,61.13
2023-03-02T23:44:32.708Z,61.30
2023-03-02T23:46:59.518Z,61.38
2023-03-02T23:49:26.065Z,61.59
2023-03-02T23:51:52.517Z,61.41
2023-03-02T23:54:18.946Z,61.39
2023-03-02T23:56:45.457Z,61.52
2023-03-02T23:59:11.798Z,61.27
